NCAR-RAP Real-Time Weather Data

Output produced by METARs form (06 May 2021  15:43 UTC)
found at http://weather.rap.ucar.edu/surface/
 
KMPV 061451Z AUTO 31014G23KT 280V340 10SM BKN037 08/01 A2993 RMK AO2 PK WND 31027/1410 SLP141 T00830011 53016
KMPV 061351Z AUTO 30012KT 10SM SCT030 BKN037 08/02 A2990 RMK AO2 SLP133 T00780017
KMPV 061300Z AUTO 32015G25KT 10SM SCT026 06/02 A2990 RMK AO2 T00610017
KMPV 061251Z AUTO 30014G23KT 10SM BKN026 05/01 A2990 RMK AO2 PK WND 32026/1230 SLP131 T00500011
KMPV 061151Z AUTO 30014G23KT 10SM OVC020 05/02 A2988 RMK AO2 SLP126 60000 70036 T00500022 10072 20050 53021
KMPV 061051Z AUTO 32015G20KT 10SM OVC018 05/03 A2986 RMK AO2 SLP119 T00500028
KMPV 061042Z AUTO 30011G19KT 10SM OVC016 05/03 A2986 RMK AO2 T00500033
KMPV 060951Z AUTO 32010KT 9SM FEW009 OVC014 05/04 A2984 RMK AO2 RAB31E41 SLP111 P0000 T00500039
KMPV 060917Z AUTO 31014G20KT 10SM OVC018 06/04 A2982 RMK AO2 T00560039
KMPV 060851Z AUTO 31015G21KT 9SM OVC012 06/04 A2982 RMK AO2 RAB00E09 SLP104 P0000 60000 T00560044 53013
KMPV 060801Z AUTO 30012G18KT 10SM -RA OVC014 06/05 A2981 RMK AO2 RAB00 P0000 T00610050
KMPV 060751Z AUTO 31014G19KT 10SM OVC015 06/05 A2981 RMK AO2 RAE0653 SLP099 P0000 T00610050
KMPV 060730Z AUTO 31012G19KT 10SM OVC015 06/05 A2980 RMK AO2 RAE0653 P0000 T00610050
KMPV 060708Z AUTO 31013G22KT 10SM BKN014 OVC019 06/05 A2979 RMK AO2 RAE0653 P0000 T00610050
KMPV 060651Z AUTO 31016G23KT 10SM -RA FEW012 BKN019 OVC044 07/06 A2979 RMK AO2 RAE0555B41 SLP093 P0000 T00670056
KMPV 060627Z AUTO 30015KT 10SM FEW012 BKN029 OVC046 07/06 A2978 RMK AO2 RAE0555 P0000 T00670056
KMPV 060601Z AUTO 31012G21KT 10SM FEW009 BKN013 OVC021 07/06 A2978 RMK AO2 RAE0555 P0000 T00720061
KMPV 060551Z AUTO 29014G24KT 7SM -RA SCT011 BKN019 OVC025 07/06 A2978 RMK AO2 RAB31 SLP090 P0001 60008 T00720061 10100 20072 55002
KMPV 060548Z AUTO 31015G24KT 6SM -RA BR SCT011 BKN016 OVC022 07/06 A2978 RMK AO2 RAB31 P0001
KMPV 060508Z AUTO 33007G18KT 10SM BKN010 BKN016 OVC030 07/07 A2978 RMK AO2 CIG 007V012 T00720067
KMPV 060451Z AUTO 31010KT 10SM SCT010 BKN017 OVC026 07/07 A2978 RMK AO2 SLP090 T00720067 401060072
KMPV 060435Z AUTO 31011KT 10SM SCT012 OVC019 08/07 A2978 RMK AO2 T00780067
KMPV 060351Z AUTO 31010G18KT 10SM BKN014 OVC022 08/07 A2979 RMK AO2 RAE06 SLP092 P0000 T00780067
KMPV 060251Z AUTO 31005KT 10SM -RA SCT012 OVC023 08/07 A2979 RMK AO2 SLP093 P0001 60007 T00780072 51014
KMPV 060151Z AUTO 31009KT 10SM -RA FEW012 BKN019 OVC027 08/08 A2979 RMK AO2 SLP093 P0001 T00830078
KMPV 060116Z AUTO 31009KT 10SM -RA SCT009 OVC016 09/08 A2978 RMK AO2 P0001 T00890083
KMPV 060108Z AUTO 32006KT 10SM -RA SCT009 OVC014 09/08 A2977 RMK AO2 P0001 T00890083
KMPV 060051Z AUTO 31007KT 7SM RA SCT009 OVC015 09/09 A2976 RMK AO2 SLP085 P0005 T00890089
KMPV 052351Z AUTO 30005KT 10SM -RA FEW006 OVC018 10/09 A2974 RMK AO2 SLP077 P0001 60026 T01000094 10100 20100 53009